• Join FlightAware (Why Join?)
  • Login
  • US Flag 
02:01AM EDT


 

Airport Tracker/Info


-or-


 

Live Flight TrackerFlight Track Log ✈ EGF2746 ✈ 03-May-2013 ✈ KDFW - KCID

Flight Track Log - Related Links

Times and Time Zones

All times are in EDT time to prevent confusion due to time zone crossing. See the EGF2746 flight status page for this flight to view local times or setup timezone preferences in your user account.

Time Position Orientation Groundspeed Altitude Reporting Facility
EDT Latitude Longitude Course Direction KTS MPH feet Rate Location/Type
10:34AM 32.9000 -97.0500 332° Northwest 132 152 1,300  Level Dallas / Fort Worth TRACON
10:35AM 32.9500 -97.0500 360° North 193 222 4,500 2,700 Climbing Dallas / Fort Worth TRACON
10:36AM 32.8307 -96.8039 10° North  Level FlightAware Approximate
10:37AM 32.9463 -96.8000 North  Level FlightAware Approximate
10:37AM 33.1000 -97.0589 357° North 275 316 10,600  Level Fort Worth Center
10:38AM 33.0500 -96.8500 328° Northwest  Level FlightAware Approximate
10:38AM 33.1628 -97.0661 354° North 243 280 12,700  Level Fort Worth Center
10:39AM 33.1520 -96.9155 332° Northwest  Level FlightAware Approximate
10:39AM 33.2378 -97.0806 351° North 243 280 15,700  Level Fort Worth Center
10:40AM 33.3131 -97.0903 354° North 255 293 16,900 900 Climbing Fort Worth Center
10:41AM 33.3903 -97.0900 360° North 287 330 17,500 1,200 Climbing Fort Worth Center
10:42AM 33.4819 -97.0475 21° North 303 349 19,300 1,740 Climbing Fort Worth Center
10:43AM 33.5569 -97.0122 21° North 321 369 21,100 1,920 Climbing Fort Worth Center
10:44AM 33.6531 -96.9692 20° North 327 376 23,200 1,980 Climbing Fort Worth Center
10:45AM 33.7364 -96.9314 21° North 327 376 25,100 1,920 Climbing Fort Worth Center
10:46AM 33.8217 -96.8933 20° North 327 376 27,100 1,920 Climbing Fort Worth Center
10:47AM 33.8989 -96.8581 21° North 313 360 29,000 1,860 Climbing Fort Worth Center
10:48AM 33.9800 -96.8222 20° North 306 352 30,900 1,380 Climbing Fort Worth Center
10:49AM 34.0633 -96.7867 19° North 306 352 31,900 960 Climbing Fort Worth Center
10:50AM 34.1528 -96.7433 22° Northeast 320 368 32,900 660 Climbing Fort Worth Center
10:51AM 34.2528 -96.6975 21° North 345 397 33,300 540 Climbing Fort Worth Center
10:52AM 34.3547 -96.6514 20° North 374 430 34,000 300 Climbing Fort Worth Center
10:53AM 34.4650 -96.6000 21° North 400 460 34,000 -360 Level Fort Worth Center
10:54AM 34.5772 -96.5508 20° North 413 475 33,300 -840 Descending Fort Worth Center
10:55AM 34.6917 -96.4967 21° North 430 495 32,400 -960 Descending Fort Worth Center
10:56AM 34.8081 -96.4425 21° North 430 495 31,400 -720 Descending Fort Worth Center
10:57AM 34.9183 -96.3906 21° North 430 495 31,000 -240 Descending Fort Worth Center
10:58AM 35.0242 -96.3411 21° North 419 482 31,000  Level Fort Worth Center
10:59AM 35.1322 -96.2914 21° North 414 476 31,000  Level Fort Worth Center
11:00AM 35.2444 -96.2392 21° North 414 476 31,000  Level Fort Worth Center
11:01AM 35.3564 -96.1867 21° North 414 476 31,000  Level Fort Worth Center
11:02AM 35.4706 -96.1342 21° North 425 489 31,000  Level Fort Worth Center
11:05AM 35.7542 -95.9981 21° North 448 516 31,000  Level Kansas City Center
11:06AM 35.8708 -95.9431 21° North 448 516 31,000  Level Kansas City Center
11:07AM 35.9875 -95.8869 21° North 447 514 31,000  Level Kansas City Center
11:08AM 36.1028 -95.8331 21° North 443 510 31,000  Level Kansas City Center
11:09AM 36.2172 -95.7764 22° Northeast 440 506 31,000  Level Kansas City Center
11:10AM 36.3342 -95.6964 29° Northeast 437 503 31,000  Level Kansas City Center
11:11AM 36.4403 -95.6261 28° Northeast 435 501 31,000  Level Kansas City Center
11:12AM 36.5472 -95.5572 27° Northeast 434 499 31,000  Level Kansas City Center
11:13AM 36.6514 -95.4869 28° Northeast 434 499 31,000  Level Kansas City Center
11:14AM 36.7592 -95.4153 28° Northeast 434 499 31,000  Level Kansas City Center
11:15AM 36.8678 -95.3439 28° Northeast 436 502 31,000  Level Kansas City Center
11:16AM 36.9983 -95.2572 28° Northeast 439 505 31,000  Level Kansas City Center
11:17AM 37.1067 -95.1853 28° Northeast 438 504 31,000  Level Kansas City Center
11:18AM 37.2144 -95.1125 28° Northeast 439 505 31,000  Level Kansas City Center
11:19AM 37.3239 -95.0392 28° Northeast 441 507 31,000  Level Kansas City Center
11:20AM 37.4333 -94.9647 28° Northeast 445 512 31,000  Level Kansas City Center
11:21AM 37.5433 -94.8917 28° Northeast 445 512 31,000  Level Kansas City Center
11:22AM 37.6542 -94.8150 29° Northeast 450 518 31,000  Level Kansas City Center
11:23AM 37.7767 -94.7306 29° Northeast 451 519 31,000  Level Kansas City Center
11:24AM 37.9011 -94.6447 29° Northeast 457 526 31,000  Level Kansas City Center
11:25AM 38.0097 -94.5692 29° Northeast 462 532 31,000  Level Kansas City Center
11:26AM 38.1325 -94.4839 29° Northeast 455 524 31,000  Level Kansas City Center
11:27AM 38.2381 -94.4108 29° Northeast 452 520 31,000  Level Kansas City Center
11:28AM 38.3417 -94.3386 29° Northeast 449 517 31,000  Level Kansas City Center
11:29AM 38.4633 -94.2536 29° Northeast 447 514 31,000  Level Kansas City Center
11:30AM 38.5658 -94.1817 29° Northeast 441 507 31,000  Level Kansas City Center
11:31AM 38.6858 -94.0975 29° Northeast 441 507 31,000  Level Kansas City Center
11:32AM 38.7889 -94.0244 29° Northeast 442 509 31,000  Level Kansas City Center
11:33AM 38.9089 -93.9392 29° Northeast 442 509 31,000  Level Kansas City Center
11:35AM 39.0094 -93.8667 29° Northeast 436 502 31,000  Level Kansas City Center
11:36AM 39.1292 -93.7817 29° Northeast 439 505 31,000  Level Kansas City Center
11:37AM 39.2303 -93.7092 29° Northeast 436 502 31,000  Level Kansas City Center
11:38AM 39.3342 -93.6347 29° Northeast 441 507 31,000  Level Kansas City Center
11:39AM 39.4606 -93.5433 29° Northeast 437 503 31,000  Level Kansas City Center
11:40AM 39.5667 -93.4656 29° Northeast 438 504 31,000  Level Kansas City Center
11:41AM 39.6703 -93.3858 31° Northeast 437 503 31,000  Level Kansas City Center
11:42AM 39.7786 -93.3133 27° Northeast 439 505 31,000  Level Kansas City Center
11:43AM 39.8839 -93.2339 30° Northeast 439 505 31,000  Level Kansas City Center
11:44AM 39.9903 -93.1564 29° Northeast 440 506 31,000  Level Kansas City Center
11:45AM 40.1150 -93.0606 30° Northeast 443 510 31,000 -360 Level Kansas City Center
11:46AM 40.2286 -92.9769 29° Northeast 434 499 30,300 -840 Descending Kansas City Center
11:47AM 40.3294 -92.9050 29° Northeast 430 495 29,300 -660 Descending Kansas City Center
11:48AM 40.4286 -92.8308 30° Northeast 429 494 29,000 -180 Descending Kansas City Center
11:49AM 40.5433 -92.7439 30° Northeast 426 490 29,000  Level Kansas City Center
11:50AM 40.6422 -92.6692 30° Northeast 433 498 29,000  Level Kansas City Center
11:51AM 40.7269 -92.6036 30° Northeast 439 505 29,000  Level Chicago Center
11:52AM 40.8314 -92.5258 29° Northeast 433 498 29,000 -1,020 Level Chicago Center
11:53AM 40.9353 -92.4481 29° Northeast 430 495 27,000 -2,460 Descending Chicago Center
11:54AM 41.0358 -92.3692 31° Northeast 422 486 24,000 -2,940 Descending Chicago Center
11:55AM 41.1356 -92.2939 30° Northeast 414 476 21,000 -3,000 Descending Chicago Center
11:56AM 41.2353 -92.2158 30° Northeast 404 465 17,900 -2,940 Descending Chicago Center
11:57AM 41.3278 -92.1447 30° Northeast 389 448 15,000 -2,580 Descending Chicago Center
11:58AM 41.4331 -92.0647 30° Northeast 365 420 12,700 -1,920 Descending Chicago Center
11:59AM 41.5161 -92.0294 18° North 331 381 11,100 -1,620 Descending Chicago Center
12:00PM 41.6019 -92.0308 359° North 310 357 9,400 -1,860 Descending Chicago Center
12:01PM 41.6858 -92.0328 359° North 302 348 7,400 -1,860 Descending Chicago Center
12:02PM 41.7639 -92.0350 359° North 288 331 5,700 -1,800 Descending Chicago Center
12:03PM 41.8350 -92.0375 358° North 271 312 3,800 -1,620 Descending Chicago Center
12:04PM 41.8711 -91.9833 48° Northeast 235 270 2,500 -720 Descending Chicago Center
12:05PM 41.8858 -91.9064 76° East 202 232 2,400 -120 Descending Chicago Center